createdAt,value
2022-09-15T00:01:24.687Z,18.93
2022-09-15T00:03:56.480Z,18.92
2022-09-15T00:06:32.791Z,18.92
2022-09-15T00:09:04.681Z,18.96
2022-09-15T00:11:40.993Z,18.98
2022-09-15T00:14:12.703Z,18.92
2022-09-15T00:16:44.348Z,18.92
2022-09-15T00:19:17.960Z,18.94
2022-09-15T00:21:49.554Z,18.92
2022-09-15T00:24:21.302Z,18.96
2022-09-15T00:26:52.876Z,19.02
2022-09-15T00:29:24.523Z,19.03
2022-09-15T00:31:56.219Z,19.00
2022-09-15T00:34:30.965Z,18.99
2022-09-15T00:37:02.644Z,19.00
2022-09-15T00:39:34.633Z,19.00
2022-09-15T00:42:07.521Z,18.97
2022-09-15T00:44:58.326Z,18.95
2022-09-15T00:47:40.772Z,18.97
2022-09-15T00:50:16.674Z,18.95
2022-09-15T00:53:00.468Z,18.97
2022-09-15T00:55:36.061Z,19.02
2022-09-15T00:58:11.878Z,19.04
2022-09-15T01:00:55.551Z,19.05
2022-09-15T01:03:32.633Z,19.07
2022-09-15T01:06:12.048Z,19.04
2022-09-15T01:08:51.411Z,19.02
2022-09-15T01:11:23.122Z,19.09
2022-09-15T01:13:55.058Z,19.15
2022-09-15T01:16:51.563Z,19.06
2022-09-15T01:19:49.785Z,19.03
2022-09-15T01:22:59.986Z,19.10
2022-09-15T01:26:02.770Z,19.06
2022-09-15T01:29:01.917Z,19.03
2022-09-15T01:32:05.770Z,18.99
2022-09-15T01:34:44.551Z,18.93
2022-09-15T01:37:21.156Z,18.89
2022-09-15T01:39:54.459Z,18.91
2022-09-15T01:42:28.608Z,18.86
2022-09-15T01:45:08.936Z,18.80
2022-09-15T01:47:41.972Z,18.83
2022-09-15T01:50:18.924Z,18.76
2022-09-15T01:52:54.603Z,18.62
2022-09-15T01:55:41.446Z,18.51
2022-09-15T01:58:13.091Z,18.44
2022-09-15T02:00:49.996Z,18.38
2022-09-15T02:03:32.102Z,18.38
2022-09-15T02:06:15.860Z,18.41
2022-09-15T02:09:03.066Z,18.36
2022-09-15T02:11:36.845Z,18.39
2022-09-15T02:14:17.371Z,18.40
2022-09-15T02:16:52.792Z,18.41
2022-09-15T02:19:41.825Z,18.32
2022-09-15T02:22:23.578Z,18.30
2022-09-15T02:25:05.769Z,18.25
2022-09-15T02:27:44.659Z,18.24
2022-09-15T02:30:19.677Z,18.28
2022-09-15T02:33:00.840Z,18.27
2022-09-15T02:35:36.312Z,18.19
2022-09-15T02:38:09.990Z,18.18
2022-09-15T02:40:43.752Z,18.23
2022-09-15T02:43:17.837Z,18.17
2022-09-15T02:45:49.830Z,18.08
2022-09-15T02:48:22.136Z,18.08
2022-09-15T02:50:53.791Z,18.09
2022-09-15T02:53:25.469Z,18.05
2022-09-15T02:55:57.969Z,17.97
2022-09-15T02:58:29.928Z,18.00
2022-09-15T03:01:04.305Z,18.00
2022-09-15T03:03:37.902Z,17.94
2022-09-15T03:06:18.481Z,17.88
2022-09-15T03:08:53.134Z,17.92
2022-09-15T03:11:26.897Z,17.89
2022-09-15T03:14:07.990Z,17.86
2022-09-15T03:16:40.221Z,17.82
2022-09-15T03:19:12.381Z,17.79
2022-09-15T03:21:44.023Z,17.81
2022-09-15T03:24:15.883Z,17.85
2022-09-15T03:26:48.539Z,17.87
2022-09-15T03:29:20.219Z,17.87
2022-09-15T03:31:52.376Z,17.89
2022-09-15T03:34:23.998Z,17.87
2022-09-15T03:36:55.617Z,17.83
2022-09-15T03:39:27.241Z,17.86
2022-09-15T03:41:58.945Z,17.86
2022-09-15T03:44:32.263Z,17.88
2022-09-15T03:47:04.090Z,17.91
2022-09-15T03:49:35.769Z,17.89
2022-09-15T03:52:07.385Z,17.85
2022-09-15T03:54:39.915Z,17.86
2022-09-15T03:57:11.563Z,17.80
2022-09-15T03:59:43.251Z,17.79
2022-09-15T04:02:14.999Z,17.82
2022-09-15T04:04:49.305Z,17.88
2022-09-15T04:07:23.832Z,17.89
2022-09-15T04:09:55.302Z,17.91
2022-09-15T04:12:28.602Z,17.92
2022-09-15T04:15:00.870Z,17.91
2022-09-15T04:17:32.774Z,17.91
2022-09-15T04:20:04.625Z,17.91
2022-09-15T04:22:36.358Z,17.95
2022-09-15T04:25:09.344Z,17.96
2022-09-15T04:27:41.018Z,17.96
2022-09-15T04:30:16.709Z,17.95
2022-09-15T04:32:48.789Z,17.95
2022-09-15T04:35:22.064Z,17.94
2022-09-15T04:37:54.646Z,17.97
2022-09-15T04:40:26.343Z,17.85
2022-09-15T04:42:58.231Z,17.85
2022-09-15T04:45:29.856Z,17.80
2022-09-15T04:48:01.601Z,17.80
2022-09-15T04:50:34.009Z,17.85
2022-09-15T04:53:07.328Z,17.88
2022-09-15T04:55:39.441Z,17.85
2022-09-15T04:58:13.202Z,17.82
2022-09-15T05:00:44.873Z,17.74
2022-09-15T05:03:16.540Z,17.70
2022-09-15T05:05:48.286Z,17.69
2022-09-15T05:08:19.924Z,17.74
2022-09-15T05:10:51.594Z,17.78
2022-09-15T05:13:23.211Z,17.83
2022-09-15T05:15:54.990Z,17.85
2022-09-15T05:18:26.593Z,17.86
2022-09-15T05:20:59.857Z,17.88
2022-09-15T05:23:33.150Z,17.88
2022-09-15T05:26:11.856Z,17.88
2022-09-15T05:28:43.734Z,17.91
2022-09-15T05:31:21.477Z,17.86
2022-09-15T05:33:53.625Z,17.92
2022-09-15T05:36:25.586Z,17.97
2022-09-15T05:38:57.821Z,18.00
2022-09-15T05:41:29.835Z,17.94
2022-09-15T05:44:01.649Z,17.90
2022-09-15T05:46:34.382Z,17.90
2022-09-15T05:49:07.291Z,17.96
2022-09-15T05:51:39.216Z,18.00
2022-09-15T05:54:10.817Z,17.99
2022-09-15T05:56:44.574Z,17.93
2022-09-15T05:59:16.223Z,17.93
2022-09-15T06:01:48.050Z,17.91
2022-09-15T06:04:19.745Z,17.96
2022-09-15T06:06:51.392Z,17.93
2022-09-15T06:09:23.073Z,17.99
2022-09-15T06:11:57.402Z,18.05
2022-09-15T06:14:28.960Z,18.17
2022-09-15T06:17:00.575Z,18.24
2022-09-15T06:19:33.423Z,18.34
2022-09-15T06:22:05.041Z,18.38
2022-09-15T06:24:36.617Z,18.46
2022-09-15T06:27:08.225Z,18.56
2022-09-15T06:29:39.950Z,18.57
2022-09-15T06:32:11.625Z,18.60
2022-09-15T06:34:43.269Z,18.58
2022-09-15T06:37:15.862Z,18.60
2022-09-15T06:39:49.748Z,18.62
2022-09-15T06:42:21.467Z,18.56
2022-09-15T06:44:53.153Z,18.61
2022-09-15T06:47:24.798Z,18.70
2022-09-15T06:49:56.475Z,18.77
2022-09-15T06:52:28.140Z,18.84
2022-09-15T06:55:00.088Z,18.88
2022-09-15T06:57:31.759Z,18.96
2022-09-15T07:00:05.290Z,19.08
2022-09-15T07:02:36.976Z,19.12
2022-09-15T07:05:10.940Z,19.16
2022-09-15T07:07:42.795Z,19.13
2022-09-15T07:10:14.396Z,19.11
2022-09-15T07:12:46.304Z,19.11
2022-09-15T07:15:17.950Z,19.10
2022-09-15T07:17:49.565Z,19.08
2022-09-15T07:20:24.193Z,18.99
2022-09-15T07:22:55.867Z,18.96
2022-09-15T07:25:27.443Z,18.92
2022-09-15T07:27:59.099Z,18.88
2022-09-15T07:30:30.689Z,18.71
2022-09-15T07:33:02.319Z,18.63
2022-09-15T07:35:34.479Z,18.62
2022-09-15T07:38:06.135Z,18.55
2022-09-15T07:40:38.431Z,18.51
2022-09-15T07:43:10.201Z,18.45
2022-09-15T07:45:42.487Z,18.51
2022-09-15T07:48:14.173Z,18.54
2022-09-15T07:50:46.987Z,18.54
2022-09-15T07:53:18.568Z,18.50
2022-09-15T07:55:53.645Z,18.51
2022-09-15T07:58:25.540Z,18.56
2022-09-15T08:01:05.191Z,18.54
2022-09-15T08:03:40.801Z,18.50
2022-09-15T08:06:13.411Z,18.54
2022-09-15T08:08:45.687Z,18.28
2022-09-15T08:11:19.691Z,18.20
2022-09-15T08:13:52.495Z,18.08
2022-09-15T08:16:24.863Z,18.02
2022-09-15T08:18:56.891Z,18.02
2022-09-15T08:21:31.786Z,17.93
2022-09-15T08:24:06.502Z,17.98
2022-09-15T08:26:38.522Z,17.84
2022-09-15T08:29:10.138Z,17.79
2022-09-15T08:31:43.032Z,17.80
2022-09-15T08:34:16.550Z,17.85
2022-09-15T08:36:48.234Z,17.89
2022-09-15T08:39:19.887Z,17.78
2022-09-15T08:41:53.987Z,17.64
2022-09-15T08:44:44.788Z,17.56
2022-09-15T08:47:43.150Z,17.57
2022-09-15T08:50:27.309Z,17.59
2022-09-15T08:53:06.648Z,17.64
2022-09-15T08:55:45.556Z,17.52
2022-09-15T08:58:23.199Z,17.42
2022-09-15T09:01:26.890Z,17.23
2022-09-15T09:04:22.503Z,17.17
2022-09-15T09:07:24.970Z,17.19
2022-09-15T09:10:15.811Z,17.23
2022-09-15T09:12:52.963Z,17.22
2022-09-15T09:15:24.599Z,17.26
2022-09-15T09:18:02.254Z,17.22
2022-09-15T09:20:36.530Z,17.26
2022-09-15T09:23:14.578Z,17.33
2022-09-15T09:25:47.145Z,17.40
2022-09-15T09:29:00.399Z,17.55
2022-09-15T09:31:36.087Z,17.67
2022-09-15T09:34:22.343Z,17.73
2022-09-15T09:37:08.654Z,17.60
2022-09-15T09:39:40.387Z,17.57
2022-09-15T09:42:16.201Z,17.63
2022-09-15T09:44:47.878Z,17.72
2022-09-15T09:47:20.565Z,17.71
2022-09-15T09:49:52.351Z,17.72
2022-09-15T09:52:38.467Z,17.70
2022-09-15T09:55:30.307Z,17.66
2022-09-15T09:58:14.543Z,17.58
2022-09-15T10:00:47.324Z,17.57
2022-09-15T10:03:32.171Z,17.62
2022-09-15T10:06:15.903Z,17.49
2022-09-15T10:09:05.216Z,17.42
2022-09-15T10:12:00.100Z,17.43
2022-09-15T10:14:42.137Z,17.49
2022-09-15T10:17:15.649Z,17.54
2022-09-15T10:19:54.233Z,17.60
2022-09-15T10:22:33.788Z,17.58
2022-09-15T10:25:20.498Z,17.38
2022-09-15T10:28:14.129Z,17.33
2022-09-15T10:31:29.547Z,17.27
2022-09-15T10:34:25.313Z,17.18
2022-09-15T10:37:15.198Z,17.10
2022-09-15T10:39:52.355Z,17.14
2022-09-15T10:42:46.103Z,17.17
2022-09-15T10:45:34.220Z,17.23
2022-09-15T10:48:14.875Z,17.25
2022-09-15T10:50:54.636Z,17.25
2022-09-15T10:53:41.532Z,17.25
2022-09-15T10:56:38.902Z,17.23
2022-09-15T10:59:23.793Z,17.17
2022-09-15T11:02:01.416Z,17.16
2022-09-15T11:04:49.692Z,17.18
2022-09-15T11:07:46.282Z,17.18
2022-09-15T11:10:31.996Z,17.19
2022-09-15T11:13:17.427Z,17.02
2022-09-15T11:16:11.916Z,17.07
2022-09-15T11:18:55.429Z,17.15
2022-09-15T11:21:35.127Z,17.17
2022-09-15T11:24:28.386Z,17.17
2022-09-15T11:27:11.353Z,17.26
2022-09-15T11:30:01.209Z,17.38
2022-09-15T11:32:40.022Z,17.41
2022-09-15T11:35:33.284Z,17.54
2022-09-15T11:38:13.038Z,17.44
2022-09-15T11:40:52.751Z,17.55
2022-09-15T11:43:37.714Z,17.79
2022-09-15T11:46:13.540Z,17.97
2022-09-15T11:48:56.531Z,18.03
2022-09-15T11:51:34.974Z,18.11
2022-09-15T11:54:13.784Z,18.21
2022-09-15T11:56:47.403Z,18.31
2022-09-15T11:59:29.266Z,18.27
2022-09-15T12:02:24.657Z,18.29
2022-09-15T12:05:11.967Z,18.26
2022-09-15T12:08:06.761Z,18.19
2022-09-15T12:10:43.414Z,18.09
2022-09-15T12:13:19.947Z,18.12
2022-09-15T12:15:53.463Z,18.11
2022-09-15T12:18:41.973Z,18.18
2022-09-15T12:21:27.832Z,18.21
2022-09-15T12:24:58.877Z,18.23
2022-09-15T12:28:03.661Z,18.28
2022-09-15T12:30:43.326Z,18.28
2022-09-15T12:34:30.051Z,18.25
2022-09-15T12:37:19.617Z,18.04
2022-09-15T12:39:54.567Z,18.08
2022-09-15T12:46:01.190Z,18.05
2022-09-15T12:51:53.874Z,17.99
2022-09-15T12:54:46.512Z,17.74
2022-09-15T12:58:04.032Z,17.66
2022-09-15T13:01:23.190Z,17.69
2022-09-15T13:03:57.902Z,17.69
2022-09-15T13:06:34.111Z,17.69
2022-09-15T13:09:06.106Z,17.64
2022-09-15T13:11:46.403Z,17.64
2022-09-15T13:14:35.678Z,17.67
2022-09-15T13:17:14.443Z,17.51
2022-09-15T13:19:49.167Z,17.38
2022-09-15T13:22:31.261Z,17.29
2022-09-15T13:25:19.689Z,17.31
2022-09-15T13:27:57.769Z,17.35
2022-09-15T13:31:02.238Z,17.40
2022-09-15T13:40:08.671Z,17.12
2022-09-15T13:43:15.649Z,17.14
2022-09-15T13:45:54.963Z,17.10
2022-09-15T13:49:02.623Z,17.18
2022-09-15T13:51:35.014Z,17.27
2022-09-15T13:54:15.202Z,17.37
2022-09-15T13:56:49.104Z,17.42
2022-09-15T13:59:25.518Z,17.37
2022-09-15T14:02:00.351Z,17.44
2022-09-15T14:04:32.278Z,17.52
2022-09-15T14:07:03.935Z,17.63
2022-09-15T14:09:44.711Z,17.76
2022-09-15T14:12:18.237Z,17.87
2022-09-15T14:14:58.179Z,17.97
2022-09-15T14:17:31.545Z,18.07
2022-09-15T14:20:06.091Z,18.13
2022-09-15T14:22:40.821Z,18.19
2022-09-15T14:25:16.807Z,18.21
2022-09-15T14:27:51.302Z,18.19
2022-09-15T14:30:22.815Z,18.03
2022-09-15T14:32:59.681Z,17.91
2022-09-15T14:35:38.163Z,17.98
2022-09-15T14:38:22.492Z,18.04
2022-09-15T14:40:56.904Z,18.10
2022-09-15T14:43:40.334Z,18.10
2022-09-15T14:46:20.840Z,18.17
2022-09-15T14:48:52.524Z,18.25
2022-09-15T14:51:28.561Z,18.31
2022-09-15T14:54:03.081Z,18.26
2022-09-15T14:56:36.154Z,18.33
2022-09-15T14:59:15.222Z,18.40
2022-09-15T15:02:00.889Z,18.49
2022-09-15T15:04:41.260Z,18.59
2022-09-15T15:07:22.636Z,18.64
2022-09-15T15:10:06.615Z,18.68
2022-09-15T15:12:45.411Z,18.62
2022-09-15T15:15:18.101Z,18.44
2022-09-15T15:17:54.525Z,18.33
2022-09-15T15:20:30.206Z,18.25
2022-09-15T15:23:23.324Z,18.08
2022-09-15T15:26:29.719Z,18.06
2022-09-15T15:29:01.647Z,18.05
2022-09-15T15:31:33.680Z,18.07
2022-09-15T15:34:19.598Z,18.01
2022-09-15T15:36:51.163Z,17.92
2022-09-15T15:39:27.589Z,17.88
2022-09-15T15:42:02.623Z,17.89
2022-09-15T15:44:37.319Z,17.92
2022-09-15T15:47:31.536Z,17.94
2022-09-15T15:50:14.296Z,17.90
2022-09-15T15:52:47.614Z,17.95
2022-09-15T15:55:24.810Z,17.98
2022-09-15T15:57:56.481Z,17.99
2022-09-15T16:00:45.123Z,17.96
2022-09-15T16:03:17.925Z,18.08
2022-09-15T16:05:57.018Z,18.24
2022-09-15T16:08:31.970Z,18.26
2022-09-15T16:11:04.573Z,18.28
2022-09-15T16:13:36.265Z,18.36
2022-09-15T16:16:20.192Z,18.44
2022-09-15T16:18:52.437Z,18.41
2022-09-15T16:21:32.505Z,18.51
2022-09-15T16:24:15.492Z,18.53
2022-09-15T16:26:49.543Z,18.59
2022-09-15T16:29:28.109Z,18.58
2022-09-15T16:31:59.910Z,18.54
2022-09-15T16:34:31.522Z,18.51
2022-09-15T16:37:03.151Z,18.46
2022-09-15T16:39:34.740Z,18.46
2022-09-15T16:42:06.571Z,18.45
2022-09-15T16:44:38.724Z,18.41
2022-09-15T16:47:10.436Z,18.39
2022-09-15T16:49:42.218Z,18.38
2022-09-15T16:52:14.017Z,18.38
2022-09-15T16:54:45.732Z,18.37
2022-09-15T16:57:19.467Z,18.37
2022-09-15T16:59:51.114Z,18.31
2022-09-15T17:02:22.889Z,18.22
2022-09-15T17:04:57.185Z,18.17
2022-09-15T17:07:29.275Z,18.10
2022-09-15T17:10:03.703Z,18.07
2022-09-15T17:12:37.054Z,18.02
2022-09-15T17:15:20.155Z,17.98
2022-09-15T17:17:52.136Z,17.93
2022-09-15T17:20:25.157Z,17.87
2022-09-15T17:22:57.881Z,17.83
2022-09-15T17:25:35.525Z,17.82
2022-09-15T17:28:08.163Z,17.80
2022-09-15T17:30:45.866Z,17.80
2022-09-15T17:33:19.182Z,17.74
2022-09-15T17:35:51.572Z,17.69
2022-09-15T17:38:23.949Z,17.66
2022-09-15T17:41:22.766Z,17.68
2022-09-15T17:43:54.523Z,17.68
2022-09-15T17:46:26.427Z,17.64
2022-09-15T17:48:58.339Z,17.58
2022-09-15T17:51:34.078Z,17.52
2022-09-15T17:54:07.595Z,17.47
2022-09-15T17:56:42.083Z,17.39
2022-09-15T17:59:16.380Z,17.35
2022-09-15T18:01:48.415Z,17.31
2022-09-15T18:04:20.209Z,17.30
2022-09-15T18:06:52.088Z,17.31
2022-09-15T18:09:23.974Z,17.27
2022-09-15T18:11:55.707Z,17.25
2022-09-15T18:14:31.676Z,17.22
2022-09-15T18:17:05.439Z,17.21
2022-09-15T18:19:37.406Z,17.19
2022-09-15T18:22:13.161Z,17.16
2022-09-15T18:24:47.037Z,17.16
2022-09-15T18:27:18.751Z,17.17
2022-09-15T18:29:50.507Z,17.16
2022-09-15T18:32:22.242Z,17.16
2022-09-15T18:34:53.986Z,17.14
2022-09-15T18:37:25.672Z,17.16
2022-09-15T18:40:08.567Z,17.20
2022-09-15T18:42:40.833Z,17.17
2022-09-15T18:45:15.830Z,17.19
2022-09-15T18:47:49.156Z,17.26
2022-09-15T18:50:25.236Z,17.32
2022-09-15T18:52:56.827Z,17.32
2022-09-15T18:55:32.926Z,17.34
2022-09-15T18:58:06.724Z,17.38
2022-09-15T19:00:40.784Z,17.41
2022-09-15T19:03:14.544Z,17.43
2022-09-15T19:05:46.417Z,17.41
2022-09-15T19:08:18.149Z,17.35
2022-09-15T19:11:00.200Z,17.33
2022-09-15T19:13:35.668Z,17.30
2022-09-15T19:16:10.928Z,17.26
2022-09-15T19:18:46.229Z,17.24
2022-09-15T19:21:18.593Z,17.25
2022-09-15T19:23:50.391Z,17.19
2022-09-15T19:26:28.887Z,17.21
2022-09-15T19:29:00.485Z,17.23
2022-09-15T19:31:32.344Z,17.26
2022-09-15T19:34:04.495Z,17.31
2022-09-15T19:36:36.124Z,17.31
2022-09-15T19:39:07.945Z,17.31
2022-09-15T19:41:39.639Z,17.31
2022-09-15T19:44:11.302Z,17.29
2022-09-15T19:46:43.439Z,17.25
2022-09-15T19:49:15.178Z,17.17
2022-09-15T19:51:47.057Z,17.13
2022-09-15T19:54:26.284Z,17.16
2022-09-15T19:56:58.168Z,17.15
2022-09-15T19:59:31.538Z,17.25
2022-09-15T20:02:03.783Z,17.39
2022-09-15T20:04:35.417Z,17.41
2022-09-15T20:07:09.772Z,17.41
2022-09-15T20:09:41.343Z,17.32
2022-09-15T20:12:13.403Z,17.25
2022-09-15T20:14:45.166Z,17.11
2022-09-15T20:17:16.932Z,17.12
2022-09-15T20:19:51.328Z,17.10
2022-09-15T20:22:23.981Z,17.09
2022-09-15T20:24:56.119Z,17.09
2022-09-15T20:27:27.889Z,17.07
2022-09-15T20:29:59.607Z,17.07
2022-09-15T20:32:33.273Z,17.03
2022-09-15T20:35:05.294Z,16.98
2022-09-15T20:37:37.756Z,16.90
2022-09-15T20:40:09.993Z,16.81
2022-09-15T20:42:41.687Z,16.66
2022-09-15T20:45:13.454Z,16.64
2022-09-15T20:47:45.096Z,16.60
2022-09-15T20:50:20.184Z,16.56
2022-09-15T20:52:52.076Z,16.49
2022-09-15T20:55:25.913Z,16.45
2022-09-15T20:57:57.516Z,16.42
2022-09-15T21:00:33.633Z,16.42
2022-09-15T21:03:05.536Z,16.36
2022-09-15T21:05:37.134Z,16.25
2022-09-15T21:08:12.078Z,16.12
2022-09-15T21:10:44.996Z,16.05
2022-09-15T21:13:16.630Z,15.98
2022-09-15T21:15:57.070Z,15.94
2022-09-15T21:18:33.873Z,15.94
2022-09-15T21:21:11.783Z,15.85
2022-09-15T21:23:46.069Z,15.72
2022-09-15T21:26:20.185Z,15.58
2022-09-15T21:28:53.039Z,15.43
2022-09-15T21:31:27.244Z,15.27
2022-09-15T21:33:59.573Z,15.14
2022-09-15T21:36:31.901Z,15.02
2022-09-15T21:39:03.597Z,14.90
2022-09-15T21:41:35.915Z,14.82
2022-09-15T21:44:07.837Z,14.71
2022-09-15T21:46:39.794Z,14.63
2022-09-15T21:49:11.394Z,14.50
2022-09-15T21:51:42.993Z,14.44
2022-09-15T21:54:15.078Z,14.37
2022-09-15T21:56:46.735Z,14.23
2022-09-15T21:59:18.497Z,14.15
2022-09-15T22:01:50.144Z,14.04
2022-09-15T22:04:21.849Z,14.00
2022-09-15T22:06:53.968Z,13.91
2022-09-15T22:09:26.309Z,13.90
2022-09-15T22:11:57.972Z,13.91
2022-09-15T22:14:31.046Z,13.90
2022-09-15T22:17:02.652Z,13.89
2022-09-15T22:19:34.284Z,13.88
2022-09-15T22:22:06.167Z,13.87
2022-09-15T22:24:38.018Z,13.83
2022-09-15T22:27:09.606Z,13.84
2022-09-15T22:29:41.220Z,13.86
2022-09-15T22:32:12.781Z,13.87
2022-09-15T22:34:45.624Z,13.85
2022-09-15T22:37:17.196Z,13.82
2022-09-15T22:39:58.820Z,13.79
2022-09-15T22:42:31.003Z,13.75
2022-09-15T22:45:02.883Z,13.77
2022-09-15T22:47:34.511Z,13.78
2022-09-15T22:50:06.258Z,13.76
2022-09-15T22:52:37.836Z,13.75
2022-09-15T22:55:09.473Z,13.73
2022-09-15T22:57:41.711Z,13.70
2022-09-15T23:00:13.860Z,13.69
2022-09-15T23:02:46.661Z,13.70
2022-09-15T23:05:18.294Z,13.70
2022-09-15T23:07:49.993Z,13.70
2022-09-15T23:10:21.635Z,13.68
2022-09-15T23:12:53.238Z,13.62
2022-09-15T23:15:25.113Z,13.54
2022-09-15T23:17:56.737Z,13.52
2022-09-15T23:20:28.444Z,13.55
2022-09-15T23:23:00.224Z,13.53
2022-09-15T23:25:31.975Z,13.53
2022-09-15T23:28:03.565Z,13.55
2022-09-15T23:30:35.189Z,13.55
2022-09-15T23:33:06.802Z,13.60
2022-09-15T23:35:38.428Z,13.60
2022-09-15T23:38:10.056Z,13.62
2022-09-15T23:40:42.897Z,13.61
2022-09-15T23:43:15.499Z,13.63
2022-09-15T23:45:47.460Z,13.62
2022-09-15T23:48:19.472Z,13.63
2022-09-15T23:50:51.590Z,13.61
2022-09-15T23:53:24.096Z,13.65
2022-09-15T23:55:55.789Z,13.65
2022-09-15T23:58:27.435Z,13.66
